sensor_id;sensor_type;location;lat;lon;timestamp;temperature;humidity
10388;DHT22;5240;51.128;4.566;2023-03-11T00:02:17;2.00;99.90
10388;DHT22;5240;51.128;4.566;2023-03-11T00:04:44;2.10;99.90
10388;DHT22;5240;51.128;4.566;2023-03-11T00:07:12;2.10;99.90
10388;DHT22;5240;51.128;4.566;2023-03-11T00:09:39;2.10;99.90
10388;DHT22;5240;51.128;4.566;2023-03-11T00:12:07;2.00;99.90
10388;DHT22;5240;51.128;4.566;2023-03-11T00:14:35;2.10;99.90
10388;DHT22;5240;51.128;4.566;2023-03-11T00:17:03;2.10;99.90
10388;DHT22;5240;51.128;4.566;2023-03-11T00:19:30;2.20;99.90
10388;DHT22;5240;51.128;4.566;2023-03-11T00:21:57;2.20;99.90
10388;DHT22;5240;51.128;4.566;2023-03-11T00:24:24;2.20;99.90
10388;DHT22;5240;51.128;4.566;2023-03-11T00:26:51;2.20;99.90
10388;DHT22;5240;51.128;4.566;2023-03-11T00:29:18;2.10;99.90
10388;DHT22;5240;51.128;4.566;2023-03-11T00:31:47;2.10;99.90
10388;DHT22;5240;51.128;4.566;2023-03-11T00:34:14;2.00;99.90
10388;DHT22;5240;51.128;4.566;2023-03-11T00:36:41;1.90;99.90
10388;DHT22;5240;51.128;4.566;2023-03-11T00:39:08;1.80;99.90
10388;DHT22;5240;51.128;4.566;2023-03-11T00:41:36;1.80;99.90
10388;DHT22;5240;51.128;4.566;2023-03-11T00:44:03;1.70;99.90
10388;DHT22;5240;51.128;4.566;2023-03-11T00:46:30;1.60;99.90
10388;DHT22;5240;51.128;4.566;2023-03-11T00:48:58;1.60;99.90
10388;DHT22;5240;51.128;4.566;2023-03-11T00:51:28;1.60;99.90
10388;DHT22;5240;51.128;4.566;2023-03-11T00:53:55;1.50;99.90
10388;DHT22;5240;51.128;4.566;2023-03-11T00:56:22;1.50;99.90
10388;DHT22;5240;51.128;4.566;2023-03-11T00:58:49;1.40;99.90
10388;DHT22;5240;51.128;4.566;2023-03-11T01:01:18;1.50;99.90
10388;DHT22;5240;51.128;4.566;2023-03-11T01:03:45;1.50;99.90
10388;DHT22;5240;51.128;4.566;2023-03-11T01:06:14;1.40;99.90
10388;DHT22;5240;51.128;4.566;2023-03-11T01:08:41;1.50;99.90
10388;DHT22;5240;51.128;4.566;2023-03-11T01:11:08;1.50;99.90
10388;DHT22;5240;51.128;4.566;2023-03-11T01:13:35;1.60;99.90
10388;DHT22;5240;51.128;4.566;2023-03-11T01:16:03;1.60;99.90
10388;DHT22;5240;51.128;4.566;2023-03-11T01:18:30;1.70;99.90
10388;DHT22;5240;51.128;4.566;2023-03-11T01:20:57;1.70;99.90
10388;DHT22;5240;51.128;4.566;2023-03-11T01:23:26;1.70;99.90
10388;DHT22;5240;51.128;4.566;2023-03-11T01:25:53;1.80;99.90
10388;DHT22;5240;51.128;4.566;2023-03-11T01:28:20;1.80;99.90
10388;DHT22;5240;51.128;4.566;2023-03-11T01:30:47;1.90;99.90
10388;DHT22;5240;51.128;4.566;2023-03-11T01:33:16;1.80;99.90
10388;DHT22;5240;51.128;4.566;2023-03-11T01:35:44;1.90;99.90
10388;DHT22;5240;51.128;4.566;2023-03-11T01:38:11;1.90;99.90
10388;DHT22;5240;51.128;4.566;2023-03-11T01:40:42;2.00;99.90
10388;DHT22;5240;51.128;4.566;2023-03-11T01:43:36;2.00;99.90
10388;DHT22;5240;51.128;4.566;2023-03-11T01:46:10;2.00;99.90
10388;DHT22;5240;51.128;4.566;2023-03-11T01:48:38;2.10;99.90
10388;DHT22;5240;51.128;4.566;2023-03-11T01:51:07;2.10;99.90
10388;DHT22;5240;51.128;4.566;2023-03-11T01:53:35;2.10;99.90
10388;DHT22;5240;51.128;4.566;2023-03-11T01:56:04;2.10;99.90
10388;DHT22;5240;51.128;4.566;2023-03-11T01:58:34;2.10;99.90
10388;DHT22;5240;51.128;4.566;2023-03-11T02:01:03;2.10;99.90
10388;DHT22;5240;51.128;4.566;2023-03-11T02:03:33;2.10;99.90
10388;DHT22;5240;51.128;4.566;2023-03-11T02:06:04;2.10;99.90
10388;DHT22;5240;51.128;4.566;2023-03-11T02:08:32;2.00;99.90
10388;DHT22;5240;51.128;4.566;2023-03-11T02:11:04;2.00;99.90
10388;DHT22;5240;51.128;4.566;2023-03-11T02:13:32;2.00;99.90
10388;DHT22;5240;51.128;4.566;2023-03-11T02:16:01;2.00;99.90
10388;DHT22;5240;51.128;4.566;2023-03-11T02:18:28;2.00;99.90
10388;DHT22;5240;51.128;4.566;2023-03-11T02:21:03;2.00;99.90
10388;DHT22;5240;51.128;4.566;2023-03-11T02:23:35;2.00;99.90
10388;DHT22;5240;51.128;4.566;2023-03-11T02:26:10;2.00;99.90
10388;DHT22;5240;51.128;4.566;2023-03-11T02:28:41;1.90;99.90
10388;DHT22;5240;51.128;4.566;2023-03-11T02:31:11;2.00;99.90
10388;DHT22;5240;51.128;4.566;2023-03-11T02:33:38;2.00;99.90
10388;DHT22;5240;51.128;4.566;2023-03-11T02:36:31;2.00;99.90
10388;DHT22;5240;51.128;4.566;2023-03-11T02:38:59;1.90;99.90
10388;DHT22;5240;51.128;4.566;2023-03-11T02:41:27;1.90;99.90
10388;DHT22;5240;51.128;4.566;2023-03-11T02:43:56;1.90;99.90
10388;DHT22;5240;51.128;4.566;2023-03-11T02:46:24;2.00;99.90
10388;DHT22;5240;51.128;4.566;2023-03-11T02:48:53;2.00;99.90
10388;DHT22;5240;51.128;4.566;2023-03-11T02:51:20;1.90;99.90
10388;DHT22;5240;51.128;4.566;2023-03-11T02:53:50;1.90;99.90
10388;DHT22;5240;51.128;4.566;2023-03-11T02:56:17;1.80;99.90
10388;DHT22;5240;51.128;4.566;2023-03-11T02:58:44;1.80;99.90
10388;DHT22;5240;51.128;4.566;2023-03-11T03:01:13;1.90;99.90
10388;DHT22;5240;51.128;4.566;2023-03-11T03:03:40;1.90;99.90
10388;DHT22;5240;51.128;4.566;2023-03-11T03:06:07;2.00;99.90
10388;DHT22;5240;51.128;4.566;2023-03-11T03:08:34;2.00;99.90
10388;DHT22;5240;51.128;4.566;2023-03-11T03:11:01;2.10;99.90
10388;DHT22;5240;51.128;4.566;2023-03-11T03:13:28;2.00;99.90
10388;DHT22;5240;51.128;4.566;2023-03-11T03:15:57;1.90;99.90
10388;DHT22;5240;51.128;4.566;2023-03-11T03:18:25;1.80;99.90
10388;DHT22;5240;51.128;4.566;2023-03-11T03:20:53;1.70;99.90
10388;DHT22;5240;51.128;4.566;2023-03-11T03:23:20;1.70;99.90
10388;DHT22;5240;51.128;4.566;2023-03-11T03:25:47;1.70;99.90
10388;DHT22;5240;51.128;4.566;2023-03-11T03:28:14;1.60;99.90
10388;DHT22;5240;51.128;4.566;2023-03-11T03:30:41;1.60;99.90
10388;DHT22;5240;51.128;4.566;2023-03-11T03:33:09;1.60;99.90
10388;DHT22;5240;51.128;4.566;2023-03-11T03:35:41;1.60;99.90
10388;DHT22;5240;51.128;4.566;2023-03-11T03:38:08;1.70;99.90
10388;DHT22;5240;51.128;4.566;2023-03-11T03:40:35;1.70;99.90
10388;DHT22;5240;51.128;4.566;2023-03-11T03:43:03;1.70;99.90
10388;DHT22;5240;51.128;4.566;2023-03-11T03:45:30;1.70;99.90
10388;DHT22;5240;51.128;4.566;2023-03-11T03:47:57;1.60;99.90
10388;DHT22;5240;51.128;4.566;2023-03-11T03:50:24;1.50;99.90
10388;DHT22;5240;51.128;4.566;2023-03-11T03:52:53;1.50;99.90
10388;DHT22;5240;51.128;4.566;2023-03-11T03:55:20;1.50;99.90
10388;DHT22;5240;51.128;4.566;2023-03-11T03:57:47;1.40;99.90
10388;DHT22;5240;51.128;4.566;2023-03-11T04:00:14;1.30;99.90
10388;DHT22;5240;51.128;4.566;2023-03-11T04:02:42;1.30;99.90
10388;DHT22;5240;51.128;4.566;2023-03-11T04:05:09;1.30;99.90
10388;DHT22;5240;51.128;4.566;2023-03-11T04:07:36;1.20;99.90
10388;DHT22;5240;51.128;4.566;2023-03-11T04:10:06;1.20;99.90
10388;DHT22;5240;51.128;4.566;2023-03-11T04:12:33;1.10;99.90
10388;DHT22;5240;51.128;4.566;2023-03-11T04:15:00;1.10;99.90
10388;DHT22;5240;51.128;4.566;2023-03-11T04:17:27;1.10;99.90
10388;DHT22;5240;51.128;4.566;2023-03-11T04:19:54;1.00;99.90
10388;DHT22;5240;51.128;4.566;2023-03-11T04:22:21;1.00;99.90
10388;DHT22;5240;51.128;4.566;2023-03-11T04:24:48;0.90;99.90
10388;DHT22;5240;51.128;4.566;2023-03-11T04:27:17;0.90;99.90
10388;DHT22;5240;51.128;4.566;2023-03-11T04:29:44;0.90;99.90
10388;DHT22;5240;51.128;4.566;2023-03-11T04:32:11;0.80;99.90
10388;DHT22;5240;51.128;4.566;2023-03-11T04:34:38;0.80;99.90
10388;DHT22;5240;51.128;4.566;2023-03-11T04:37:05;0.80;99.90
10388;DHT22;5240;51.128;4.566;2023-03-11T04:39:32;0.80;99.90
10388;DHT22;5240;51.128;4.566;2023-03-11T04:41:59;0.80;99.90
10388;DHT22;5240;51.128;4.566;2023-03-11T04:44:28;0.80;99.90
10388;DHT22;5240;51.128;4.566;2023-03-11T04:46:55;0.70;99.90
10388;DHT22;5240;51.128;4.566;2023-03-11T04:49:22;0.70;99.90
10388;DHT22;5240;51.128;4.566;2023-03-11T04:51:49;0.60;99.90
10388;DHT22;5240;51.128;4.566;2023-03-11T04:54:16;0.70;99.90
10388;DHT22;5240;51.128;4.566;2023-03-11T04:56:43;0.70;99.90
10388;DHT22;5240;51.128;4.566;2023-03-11T04:59:10;0.70;99.90
10388;DHT22;5240;51.128;4.566;2023-03-11T05:01:39;0.70;99.90
10388;DHT22;5240;51.128;4.566;2023-03-11T05:04:06;0.70;99.90
10388;DHT22;5240;51.128;4.566;2023-03-11T05:06:33;0.70;99.90
10388;DHT22;5240;51.128;4.566;2023-03-11T05:09:00;0.70;99.90
10388;DHT22;5240;51.128;4.566;2023-03-11T05:11:27;0.60;99.90
10388;DHT22;5240;51.128;4.566;2023-03-11T05:13:54;0.60;99.90
10388;DHT22;5240;51.128;4.566;2023-03-11T05:16:21;0.60;99.90
10388;DHT22;5240;51.128;4.566;2023-03-11T05:18:50;0.60;99.90
10388;DHT22;5240;51.128;4.566;2023-03-11T05:21:17;0.50;99.90
10388;DHT22;5240;51.128;4.566;2023-03-11T05:23:44;0.50;99.90
10388;DHT22;5240;51.128;4.566;2023-03-11T05:26:11;0.50;99.90
10388;DHT22;5240;51.128;4.566;2023-03-11T05:28:38;0.60;99.90
10388;DHT22;5240;51.128;4.566;2023-03-11T05:31:07;0.60;99.90
10388;DHT22;5240;51.128;4.566;2023-03-11T05:33:34;0.60;99.90
10388;DHT22;5240;51.128;4.566;2023-03-11T05:36:08;0.50;99.90
10388;DHT22;5240;51.128;4.566;2023-03-11T05:38:36;0.50;99.90
10388;DHT22;5240;51.128;4.566;2023-03-11T05:41:04;0.50;99.90
10388;DHT22;5240;51.128;4.566;2023-03-11T05:43:32;0.40;99.90
10388;DHT22;5240;51.128;4.566;2023-03-11T05:45:59;0.40;99.90
10388;DHT22;5240;51.128;4.566;2023-03-11T05:48:26;0.40;99.90
10388;DHT22;5240;51.128;4.566;2023-03-11T05:50:53;0.40;99.90
10388;DHT22;5240;51.128;4.566;2023-03-11T05:53:21;0.40;99.90
10388;DHT22;5240;51.128;4.566;2023-03-11T05:55:55;0.40;99.90
10388;DHT22;5240;51.128;4.566;2023-03-11T05:58:22;0.40;99.90
10388;DHT22;5240;51.128;4.566;2023-03-11T06:00:49;0.30;99.90
10388;DHT22;5240;51.128;4.566;2023-03-11T06:03:16;0.30;99.90
10388;DHT22;5240;51.128;4.566;2023-03-11T06:05:44;0.30;99.90
10388;DHT22;5240;51.128;4.566;2023-03-11T06:08:11;0.30;99.90
10388;DHT22;5240;51.128;4.566;2023-03-11T06:10:40;0.30;99.90
10388;DHT22;5240;51.128;4.566;2023-03-11T06:13:07;0.30;99.90
10388;DHT22;5240;51.128;4.566;2023-03-11T06:15:35;0.20;99.90
10388;DHT22;5240;51.128;4.566;2023-03-11T06:18:02;0.30;99.90
10388;DHT22;5240;51.128;4.566;2023-03-11T06:20:30;0.30;99.90
10388;DHT22;5240;51.128;4.566;2023-03-11T06:22:57;0.30;99.90
10388;DHT22;5240;51.128;4.566;2023-03-11T06:25:24;0.30;99.90
10388;DHT22;5240;51.128;4.566;2023-03-11T06:27:53;0.30;99.90
10388;DHT22;5240;51.128;4.566;2023-03-11T06:30:20;0.30;99.90
10388;DHT22;5240;51.128;4.566;2023-03-11T06:32:47;0.30;99.90
10388;DHT22;5240;51.128;4.566;2023-03-11T06:35:15;0.30;99.90
10388;DHT22;5240;51.128;4.566;2023-03-11T06:37:42;0.30;99.90
10388;DHT22;5240;51.128;4.566;2023-03-11T06:40:10;0.30;99.90
10388;DHT22;5240;51.128;4.566;2023-03-11T06:42:39;0.30;99.90
10388;DHT22;5240;51.128;4.566;2023-03-11T06:45:09;0.40;99.90
10388;DHT22;5240;51.128;4.566;2023-03-11T06:47:36;0.40;99.90
10388;DHT22;5240;51.128;4.566;2023-03-11T06:50:03;0.40;99.90
10388;DHT22;5240;51.128;4.566;2023-03-11T06:52:33;0.40;99.90
10388;DHT22;5240;51.128;4.566;2023-03-11T06:55:00;0.50;99.90
10388;DHT22;5240;51.128;4.566;2023-03-11T06:57:28;0.60;99.90
10388;DHT22;5240;51.128;4.566;2023-03-11T06:59:56;0.60;99.90
10388;DHT22;5240;51.128;4.566;2023-03-11T07:02:24;0.60;99.90
10388;DHT22;5240;51.128;4.566;2023-03-11T07:04:51;0.60;99.90
10388;DHT22;5240;51.128;4.566;2023-03-11T07:07:18;0.70;99.90
10388;DHT22;5240;51.128;4.566;2023-03-11T07:09:46;0.70;99.90
10388;DHT22;5240;51.128;4.566;2023-03-11T07:12:13;0.70;99.90
10388;DHT22;5240;51.128;4.566;2023-03-11T07:14:40;0.80;99.90
10388;DHT22;5240;51.128;4.566;2023-03-11T07:17:07;0.80;99.90
10388;DHT22;5240;51.128;4.566;2023-03-11T07:19:36;0.90;99.90
10388;DHT22;5240;51.128;4.566;2023-03-11T07:22:03;0.90;99.90
10388;DHT22;5240;51.128;4.566;2023-03-11T07:24:30;1.00;99.90
10388;DHT22;5240;51.128;4.566;2023-03-11T07:26:57;1.00;99.90
10388;DHT22;5240;51.128;4.566;2023-03-11T07:29:24;1.10;99.90
10388;DHT22;5240;51.128;4.566;2023-03-11T07:31:51;1.20;99.90
10388;DHT22;5240;51.128;4.566;2023-03-11T07:34:19;1.20;99.90
10388;DHT22;5240;51.128;4.566;2023-03-11T07:36:47;1.30;99.90
10388;DHT22;5240;51.128;4.566;2023-03-11T07:39:28;1.40;99.90
10388;DHT22;5240;51.128;4.566;2023-03-11T07:41:55;1.50;99.90
10388;DHT22;5240;51.128;4.566;2023-03-11T07:44:22;1.50;99.90
10388;DHT22;5240;51.128;4.566;2023-03-11T07:46:49;1.60;99.90
10388;DHT22;5240;51.128;4.566;2023-03-11T07:49:16;1.80;99.90
10388;DHT22;5240;51.128;4.566;2023-03-11T07:51:43;1.80;99.90
10388;DHT22;5240;51.128;4.566;2023-03-11T07:54:12;1.80;99.90
10388;DHT22;5240;51.128;4.566;2023-03-11T07:56:39;2.00;99.90
10388;DHT22;5240;51.128;4.566;2023-03-11T07:59:06;2.20;99.90
10388;DHT22;5240;51.128;4.566;2023-03-11T08:01:33;2.40;99.90
10388;DHT22;5240;51.128;4.566;2023-03-11T08:04:07;2.70;99.90
10388;DHT22;5240;51.128;4.566;2023-03-11T08:06:35;3.10;99.90
10388;DHT22;5240;51.128;4.566;2023-03-11T08:09:04;3.60;99.90
10388;DHT22;5240;51.128;4.566;2023-03-11T08:11:33;3.90;99.90
10388;DHT22;5240;51.128;4.566;2023-03-11T08:14:01;4.40;99.90
10388;DHT22;5240;51.128;4.566;2023-03-11T08:16:28;4.60;99.90
10388;DHT22;5240;51.128;4.566;2023-03-11T08:18:56;4.90;99.90
10388;DHT22;5240;51.128;4.566;2023-03-11T08:21:25;5.30;99.90
10388;DHT22;5240;51.128;4.566;2023-03-11T08:23:56;5.70;99.90
10388;DHT22;5240;51.128;4.566;2023-03-11T08:26:23;6.30;99.90
10388;DHT22;5240;51.128;4.566;2023-03-11T08:28:52;6.80;99.90
10388;DHT22;5240;51.128;4.566;2023-03-11T08:31:22;7.30;99.90
10388;DHT22;5240;51.128;4.566;2023-03-11T08:33:51;7.70;99.90
10388;DHT22;5240;51.128;4.566;2023-03-11T08:36:19;8.10;99.90
10388;DHT22;5240;51.128;4.566;2023-03-11T08:38:46;8.40;99.90
10388;DHT22;5240;51.128;4.566;2023-03-11T08:41:13;7.90;99.90
10388;DHT22;5240;51.128;4.566;2023-03-11T08:43:41;8.00;99.90
10388;DHT22;5240;51.128;4.566;2023-03-11T08:46:14;7.80;99.90
10388;DHT22;5240;51.128;4.566;2023-03-11T08:48:43;7.90;99.90
10388;DHT22;5240;51.128;4.566;2023-03-11T08:51:10;7.80;99.90
10388;DHT22;5240;51.128;4.566;2023-03-11T08:53:38;8.00;99.90
10388;DHT22;5240;51.128;4.566;2023-03-11T08:56:05;8.30;99.90
10388;DHT22;5240;51.128;4.566;2023-03-11T08:58:32;8.60;99.90
10388;DHT22;5240;51.128;4.566;2023-03-11T09:00:59;8.90;99.90
10388;DHT22;5240;51.128;4.566;2023-03-11T09:03:30;9.40;99.90
10388;DHT22;5240;51.128;4.566;2023-03-11T09:05:57;9.30;99.90
10388;DHT22;5240;51.128;4.566;2023-03-11T09:08:24;9.70;99.90
10388;DHT22;5240;51.128;4.566;2023-03-11T09:10:52;9.70;99.90
10388;DHT22;5240;51.128;4.566;2023-03-11T09:13:19;9.50;99.90
10388;DHT22;5240;51.128;4.566;2023-03-11T09:15:47;9.70;99.90
10388;DHT22;5240;51.128;4.566;2023-03-11T09:18:15;9.90;99.90
10388;DHT22;5240;51.128;4.566;2023-03-11T09:20:44;10.30;99.90
10388;DHT22;5240;51.128;4.566;2023-03-11T09:23:13;10.60;99.90
10388;DHT22;5240;51.128;4.566;2023-03-11T09:25:40;10.50;99.90
10388;DHT22;5240;51.128;4.566;2023-03-11T09:28:08;10.80;99.90
10388;DHT22;5240;51.128;4.566;2023-03-11T09:30:35;11.20;99.90
10388;DHT22;5240;51.128;4.566;2023-03-11T09:33:03;11.20;99.90
10388;DHT22;5240;51.128;4.566;2023-03-11T09:35:30;11.50;99.90
10388;DHT22;5240;51.128;4.566;2023-03-11T09:37:59;11.60;99.90
10388;DHT22;5240;51.128;4.566;2023-03-11T09:40:28;10.90;99.90
10388;DHT22;5240;51.128;4.566;2023-03-11T09:43:07;10.50;99.90
10388;DHT22;5240;51.128;4.566;2023-03-11T09:45:43;9.90;99.90
10388;DHT22;5240;51.128;4.566;2023-03-11T09:48:19;10.70;99.90
10388;DHT22;5240;51.128;4.566;2023-03-11T09:50:50;10.90;99.90
10388;DHT22;5240;51.128;4.566;2023-03-11T09:53:30;10.60;99.90
10388;DHT22;5240;51.128;4.566;2023-03-11T09:56:02;10.20;99.90
10388;DHT22;5240;51.128;4.566;2023-03-11T09:58:36;10.30;99.90
10388;DHT22;5240;51.128;4.566;2023-03-11T10:01:13;10.10;99.90
10388;DHT22;5240;51.128;4.566;2023-03-11T10:03:42;9.60;99.90
10388;DHT22;5240;51.128;4.566;2023-03-11T10:06:15;9.10;99.90
10388;DHT22;5240;51.128;4.566;2023-03-11T10:08:46;9.10;99.90
10388;DHT22;5240;51.128;4.566;2023-03-11T10:11:47;9.10;99.90
10388;DHT22;5240;51.128;4.566;2023-03-11T10:14:34;8.80;99.90
10388;DHT22;5240;51.128;4.566;2023-03-11T10:17:13;8.80;99.90
10388;DHT22;5240;51.128;4.566;2023-03-11T10:19:47;9.50;99.90
10388;DHT22;5240;51.128;4.566;2023-03-11T10:22:22;10.40;99.90
10388;DHT22;5240;51.128;4.566;2023-03-11T10:25:03;11.50;99.90
10388;DHT22;5240;51.128;4.566;2023-03-11T10:27:38;11.80;99.90
10388;DHT22;5240;51.128;4.566;2023-03-11T10:30:16;11.70;99.90
10388;DHT22;5240;51.128;4.566;2023-03-11T10:32:48;11.50;99.90
10388;DHT22;5240;51.128;4.566;2023-03-11T10:35:20;11.40;99.90
10388;DHT22;5240;51.128;4.566;2023-03-11T10:37:52;10.90;99.90
10388;DHT22;5240;51.128;4.566;2023-03-11T10:40:29;10.60;99.90
10388;DHT22;5240;51.128;4.566;2023-03-11T10:42:59;10.50;99.90
10388;DHT22;5240;51.128;4.566;2023-03-11T10:45:28;11.00;99.90
10388;DHT22;5240;51.128;4.566;2023-03-11T10:47:58;10.40;99.90
10388;DHT22;5240;51.128;4.566;2023-03-11T10:50:25;9.90;99.90
10388;DHT22;5240;51.128;4.566;2023-03-11T10:53:14;9.90;99.90
10388;DHT22;5240;51.128;4.566;2023-03-11T10:55:46;10.70;99.90
10388;DHT22;5240;51.128;4.566;2023-03-11T10:58:15;11.70;99.90
10388;DHT22;5240;51.128;4.566;2023-03-11T11:00:43;11.80;99.90
10388;DHT22;5240;51.128;4.566;2023-03-11T11:03:19;11.90;99.90
10388;DHT22;5240;51.128;4.566;2023-03-11T11:05:57;11.70;99.90
10388;DHT22;5240;51.128;4.566;2023-03-11T11:08:25;11.10;99.90
10388;DHT22;5240;51.128;4.566;2023-03-11T11:10:55;10.90;99.90
10388;DHT22;5240;51.128;4.566;2023-03-11T11:13:24;10.50;99.90
10388;DHT22;5240;51.128;4.566;2023-03-11T11:15:55;10.30;99.90
10388;DHT22;5240;51.128;4.566;2023-03-11T11:18:24;10.20;99.90
10388;DHT22;5240;51.128;4.566;2023-03-11T11:21:00;10.40;99.90
10388;DHT22;5240;51.128;4.566;2023-03-11T11:23:42;10.30;99.90
10388;DHT22;5240;51.128;4.566;2023-03-11T11:26:21;10.40;99.90
10388;DHT22;5240;51.128;4.566;2023-03-11T11:29:05;10.40;99.90
10388;DHT22;5240;51.128;4.566;2023-03-11T11:31:33;11.10;99.90
10388;DHT22;5240;51.128;4.566;2023-03-11T11:34:00;12.30;99.90
10388;DHT22;5240;51.128;4.566;2023-03-11T11:36:30;12.60;99.90
10388;DHT22;5240;51.128;4.566;2023-03-11T11:38:58;11.80;99.90
10388;DHT22;5240;51.128;4.566;2023-03-11T11:41:30;11.30;99.90
10388;DHT22;5240;51.128;4.566;2023-03-11T11:44:02;11.00;99.90
10388;DHT22;5240;51.128;4.566;2023-03-11T11:46:36;11.00;99.90
10388;DHT22;5240;51.128;4.566;2023-03-11T11:49:10;10.90;99.90
10388;DHT22;5240;51.128;4.566;2023-03-11T11:51:47;10.60;99.90
10388;DHT22;5240;51.128;4.566;2023-03-11T11:54:26;10.70;99.90
10388;DHT22;5240;51.128;4.566;2023-03-11T11:56:57;10.30;99.90
10388;DHT22;5240;51.128;4.566;2023-03-11T11:59:24;9.70;99.90
10388;DHT22;5240;51.128;4.566;2023-03-11T12:02:01;9.30;99.90
10388;DHT22;5240;51.128;4.566;2023-03-11T12:04:52;8.90;99.90
10388;DHT22;5240;51.128;4.566;2023-03-11T12:07:39;8.70;99.90
10388;DHT22;5240;51.128;4.566;2023-03-11T12:10:17;8.60;99.90
10388;DHT22;5240;51.128;4.566;2023-03-11T12:13:00;8.40;99.90
10388;DHT22;5240;51.128;4.566;2023-03-11T12:15:35;8.30;99.90
10388;DHT22;5240;51.128;4.566;2023-03-11T12:18:10;8.20;99.90
10388;DHT22;5240;51.128;4.566;2023-03-11T12:20:42;8.50;99.90
10388;DHT22;5240;51.128;4.566;2023-03-11T12:23:17;8.70;99.90
10388;DHT22;5240;51.128;4.566;2023-03-11T12:26:11;8.90;99.90
10388;DHT22;5240;51.128;4.566;2023-03-11T12:28:44;9.30;99.90
10388;DHT22;5240;51.128;4.566;2023-03-11T12:31:14;9.80;99.90
10388;DHT22;5240;51.128;4.566;2023-03-11T12:33:43;10.00;99.90
10388;DHT22;5240;51.128;4.566;2023-03-11T12:36:21;9.80;99.90
10388;DHT22;5240;51.128;4.566;2023-03-11T12:38:50;9.90;99.90
10388;DHT22;5240;51.128;4.566;2023-03-11T12:41:34;9.80;99.90
10388;DHT22;5240;51.128;4.566;2023-03-11T12:44:20;9.60;99.90
10388;DHT22;5240;51.128;4.566;2023-03-11T12:49:44;9.70;99.90
10388;DHT22;5240;51.128;4.566;2023-03-11T12:52:20;9.70;99.90
10388;DHT22;5240;51.128;4.566;2023-03-11T12:55:22;9.40;99.90
10388;DHT22;5240;51.128;4.566;2023-03-11T12:57:47;9.20;99.90
10388;DHT22;5240;51.128;4.566;2023-03-11T13:00:25;8.90;99.90
10388;DHT22;5240;51.128;4.566;2023-03-11T13:03:37;8.60;99.90
10388;DHT22;5240;51.128;4.566;2023-03-11T13:06:20;8.30;99.90
10388;DHT22;5240;51.128;4.566;2023-03-11T13:08:54;8.10;99.90
10388;DHT22;5240;51.128;4.566;2023-03-11T13:11:33;8.00;99.90
10388;DHT22;5240;51.128;4.566;2023-03-11T13:14:20;7.90;99.90
10388;DHT22;5240;51.128;4.566;2023-03-11T13:16:50;7.90;99.90
10388;DHT22;5240;51.128;4.566;2023-03-11T13:19:46;7.90;99.90
10388;DHT22;5240;51.128;4.566;2023-03-11T13:25:41;7.70;99.90
10388;DHT22;5240;51.128;4.566;2023-03-11T13:28:45;7.80;99.90
10388;DHT22;5240;51.128;4.566;2023-03-11T13:31:36;7.80;99.90
10388;DHT22;5240;51.128;4.566;2023-03-11T13:34:14;7.90;99.90
10388;DHT22;5240;51.128;4.566;2023-03-11T13:37:02;7.80;99.90
10388;DHT22;5240;51.128;4.566;2023-03-11T13:39:55;7.80;99.90
10388;DHT22;5240;51.128;4.566;2023-03-11T13:42:29;7.80;99.90
10388;DHT22;5240;51.128;4.566;2023-03-11T13:44:57;7.60;99.90
10388;DHT22;5240;51.128;4.566;2023-03-11T13:47:26;7.60;99.90
10388;DHT22;5240;51.128;4.566;2023-03-11T13:50:02;7.70;99.90
10388;DHT22;5240;51.128;4.566;2023-03-11T13:52:33;7.80;99.90
10388;DHT22;5240;51.128;4.566;2023-03-11T13:55:02;7.80;99.90
10388;DHT22;5240;51.128;4.566;2023-03-11T13:57:32;7.80;99.90
10388;DHT22;5240;51.128;4.566;2023-03-11T14:00:06;7.70;99.90
10388;DHT22;5240;51.128;4.566;2023-03-11T14:02:46;7.70;99.90
10388;DHT22;5240;51.128;4.566;2023-03-11T14:05:21;7.80;99.90
10388;DHT22;5240;51.128;4.566;2023-03-11T14:07:49;7.90;99.90
10388;DHT22;5240;51.128;4.566;2023-03-11T14:10:23;7.90;99.90
10388;DHT22;5240;51.128;4.566;2023-03-11T14:12:51;7.80;99.90
10388;DHT22;5240;51.128;4.566;2023-03-11T14:15:21;7.80;99.90
10388;DHT22;5240;51.128;4.566;2023-03-11T14:17:50;7.80;99.90
10388;DHT22;5240;51.128;4.566;2023-03-11T14:20:23;7.80;99.90
10388;DHT22;5240;51.128;4.566;2023-03-11T14:22:53;7.80;99.90
10388;DHT22;5240;51.128;4.566;2023-03-11T14:25:24;7.70;99.90
10388;DHT22;5240;51.128;4.566;2023-03-11T14:27:54;7.70;99.90
10388;DHT22;5240;51.128;4.566;2023-03-11T14:30:25;7.70;99.90
10388;DHT22;5240;51.128;4.566;2023-03-11T14:32:58;7.70;99.90
10388;DHT22;5240;51.128;4.566;2023-03-11T14:35:27;7.70;99.90
10388;DHT22;5240;51.128;4.566;2023-03-11T14:37:54;7.60;99.90
10388;DHT22;5240;51.128;4.566;2023-03-11T14:40:24;7.60;99.90
10388;DHT22;5240;51.128;4.566;2023-03-11T14:42:53;7.70;99.90
10388;DHT22;5240;51.128;4.566;2023-03-11T14:45:23;7.70;99.90
10388;DHT22;5240;51.128;4.566;2023-03-11T14:47:55;7.70;99.90
10388;DHT22;5240;51.128;4.566;2023-03-11T14:50:27;7.70;99.90
10388;DHT22;5240;51.128;4.566;2023-03-11T14:52:58;7.60;99.90
10388;DHT22;5240;51.128;4.566;2023-03-11T14:55:29;7.50;99.90
10388;DHT22;5240;51.128;4.566;2023-03-11T14:58:01;7.50;99.90
10388;DHT22;5240;51.128;4.566;2023-03-11T15:00:34;7.50;99.90
10388;DHT22;5240;51.128;4.566;2023-03-11T15:03:07;7.60;99.90
10388;DHT22;5240;51.128;4.566;2023-03-11T15:05:43;7.60;99.90
10388;DHT22;5240;51.128;4.566;2023-03-11T15:08:16;7.70;99.90
10388;DHT22;5240;51.128;4.566;2023-03-11T15:11:01;7.70;99.90
10388;DHT22;5240;51.128;4.566;2023-03-11T15:13:29;7.60;99.90
10388;DHT22;5240;51.128;4.566;2023-03-11T15:15:57;7.60;99.90
10388;DHT22;5240;51.128;4.566;2023-03-11T15:18:27;7.70;99.90
10388;DHT22;5240;51.128;4.566;2023-03-11T15:21:13;7.70;99.90
10388;DHT22;5240;51.128;4.566;2023-03-11T15:23:44;7.80;99.90
10388;DHT22;5240;51.128;4.566;2023-03-11T15:26:18;7.70;99.90
10388;DHT22;5240;51.128;4.566;2023-03-11T15:28:52;7.70;99.90
10388;DHT22;5240;51.128;4.566;2023-03-11T15:31:31;7.70;99.90
10388;DHT22;5240;51.128;4.566;2023-03-11T15:34:27;7.60;99.90
10388;DHT22;5240;51.128;4.566;2023-03-11T15:37:14;7.70;99.90
10388;DHT22;5240;51.128;4.566;2023-03-11T15:39:46;7.70;99.90
10388;DHT22;5240;51.128;4.566;2023-03-11T15:42:23;7.70;99.90
10388;DHT22;5240;51.128;4.566;2023-03-11T15:45:10;7.60;99.90
10388;DHT22;5240;51.128;4.566;2023-03-11T15:47:38;7.50;99.90
10388;DHT22;5240;51.128;4.566;2023-03-11T15:50:20;7.50;99.90
10388;DHT22;5240;51.128;4.566;2023-03-11T15:52:51;7.50;99.90
10388;DHT22;5240;51.128;4.566;2023-03-11T15:55:18;7.50;99.90
10388;DHT22;5240;51.128;4.566;2023-03-11T15:57:46;7.50;99.90
10388;DHT22;5240;51.128;4.566;2023-03-11T16:00:16;7.50;99.90
10388;DHT22;5240;51.128;4.566;2023-03-11T16:02:44;7.50;99.90
10388;DHT22;5240;51.128;4.566;2023-03-11T16:05:17;7.40;99.90
10388;DHT22;5240;51.128;4.566;2023-03-11T16:07:45;7.30;99.90
10388;DHT22;5240;51.128;4.566;2023-03-11T16:10:15;7.30;99.90
10388;DHT22;5240;51.128;4.566;2023-03-11T16:12:43;7.30;99.90
10388;DHT22;5240;51.128;4.566;2023-03-11T16:15:19;7.20;99.90
10388;DHT22;5240;51.128;4.566;2023-03-11T16:17:46;7.20;99.90
10388;DHT22;5240;51.128;4.566;2023-03-11T16:20:16;7.20;99.90
10388;DHT22;5240;51.128;4.566;2023-03-11T16:22:43;7.30;99.90
10388;DHT22;5240;51.128;4.566;2023-03-11T16:25:19;7.30;99.90
10388;DHT22;5240;51.128;4.566;2023-03-11T16:27:49;7.30;99.90
10388;DHT22;5240;51.128;4.566;2023-03-11T16:30:17;7.30;99.90